White Point — IBAE — position and weather

sailwx.info

Track history (hours):
 
Tides and Currents Weather Stations Pressure Air Temp Water Temp Dewpoint Dewpoint Depression Visibility Wind Speed Wind Dir Waves Ship Positions

White Point

Last reported at 2017-Feb-26 09:32 UTC. Time now 2017-Feb-26 10:32 UTC.
Position N 45°20' E 012°26'.

Length 183 m; draft 1.1 m.

Type: Ship (hazmat cat D). MMSI: 247087400.

Date/timePositionNaut miles runAvg speedWind from/ knotsBaromVisibWave heightAir tempDewpointWater temp
2017-Feb-26 09:32N 45°20' E 012°26'0 0.0
2017-Feb-26 08:32N 45°20' E 012°26'0 0.0
2017-Feb-26 07:32N 45°20' E 012°26'0 0.0
2017-Feb-26 06:32N 45°20' E 012°26'0 0.0
2017-Feb-26 05:32N 45°20' E 012°26'0 0.0
2017-Feb-26 04:32N 45°20' E 012°26'0 0.0
2017-Feb-26 03:32N 45°20' E 012°26'0 0.0
2017-Feb-26 02:32N 45°20' E 012°26'0 0.0
2017-Feb-26 01:32N 45°20' E 012°26'0 0.0
2017-Feb-26 00:32N 45°20' E 012°26'0 0.0
2017-Feb-25 23:32N 45°20' E 012°26'0 0.0
2017-Feb-25 22:32N 45°20' E 012°26'0 0.0
2017-Feb-25 21:32N 45°20' E 012°26'0 0.0
2017-Feb-25 20:32N 45°20' E 012°26'0 0.0
2017-Feb-25 19:32N 45°20' E 012°26'0 0.0
2017-Feb-25 18:33N 45°20' E 012°26'0 0.0
2017-Feb-25 17:33N 45°20' E 012°26'1 1.1
2017-Feb-25 16:33N 45°19' E 012°27'1212.3
2017-Feb-25 15:34N 45°11' E 012°40'1312.6
2017-Feb-25 14:33N 45°01' E 012°50'1212.0
2017-Feb-25 13:33N 44°50' E 012°58'1211.7
2017-Feb-25 12:34N 44°39' E 013°03'1211.9
2017-Feb-25 11:33N 44°28' E 013°09'1111.3
2017-Feb-25 10:33N 44°18' E 013°18'1311.3
2017-Feb-25 09:27N 44°09' E 013°30'395 9.7
2017-Feb-23 16:32N 37°51' E 016°02'1312.8
2017-Feb-23 15:33N 37°51' E 015°46'1313.1
2017-Feb-23 14:33N 38°01' E 015°35'1414.0
2017-Feb-23 13:33N 38°15' E 015°38'8 7.6
2017-Feb-23 12:33N 38°19' E 015°30'1212.3
2017-Feb-23 11:33N 38°13' E 015°17'0 0.4
2017-Feb-23 10:31N 38°13' E 015°16'0 0.0
2017-Feb-23 08:30N 38°13' E 015°16'0 0.0
2017-Feb-23 06:16N 38°13' E 015°16'0 0.0
2017-Feb-23 05:33N 38°13' E 015°16'0 0.0
2017-Feb-23 04:33N 38°13' E 015°16'0 0.0
2017-Feb-23 03:34N 38°13' E 015°16'0 0.0
2017-Feb-23 02:34N 38°13' E 015°16'0 0.0
2017-Feb-23 01:34N 38°13' E 015°16'0 0.0
2017-Feb-23 00:34N 38°13' E 015°16'0 0.0
2017-Feb-22 23:33N 38°13' E 015°16'0 0.0
2017-Feb-22 22:34N 38°13' E 015°16'0 0.0
2017-Feb-22 21:33N 38°13' E 015°16'0 0.0
2017-Feb-22 20:34N 38°13' E 015°16'0 0.0
2017-Feb-22 19:33N 38°13' E 015°16'0 0.0
2017-Feb-22 18:33N 38°13' E 015°16'0 0.0
2017-Feb-22 17:33N 38°13' E 015°16'0 0.0
2017-Feb-22 16:33N 38°13' E 015°16'0 0.0
2017-Feb-22 15:33N 38°13' E 015°16'0 0.0
2017-Feb-22 14:33N 38°13' E 015°16'0 0.3
2017-Feb-22 13:33N 38°13' E 015°16'1 0.9
2017-Feb-22 12:28N 38°13' E 015°18'0 0.1
2017-Feb-22 11:33N 38°13' E 015°18'1010.0
2017-Feb-22 10:33N 38°19' E 015°28'1110.7
2017-Feb-22 09:33N 38°19' E 015°42'10 9.9
2017-Feb-22 08:33N 38°09' E 015°37'1111.4
2017-Feb-22 07:33N 37°58' E 015°37'1511.8
2017-Feb-22 06:19N 37°51' E 015°53'12711.7
2017-Feb-21 19:25N 39°41' E 017°16'1113.1
2017-Feb-21 18:33N 39°52' E 017°14'1313.4
2017-Feb-21 17:32N 40°05' E 017°11'1313.0
2017-Feb-21 16:32N 40°18' E 017°09'1010.2
2017-Feb-21 15:33N 40°28' E 017°12'0 0.4
2017-Feb-21 14:31N 40°28' E 017°12'0 0.0
2017-Feb-21 13:31N 40°28' E 017°12'0 0.0
2017-Feb-21 12:31N 40°28' E 017°12'0 0.0
2017-Feb-21 11:31N 40°28' E 017°12'0 0.0
2017-Feb-21 10:31N 40°28' E 017°12'0 0.0
2017-Feb-21 09:31N 40°28' E 017°12'0 0.0
2017-Feb-21 08:31N 40°28' E 017°12'0 0.0
2017-Feb-21 07:31N 40°28' E 017°12'0 0.0
2017-Feb-21 06:31N 40°28' E 017°12'0 0.0
2017-Feb-21 05:31N 40°28' E 017°12'0 0.0
2017-Feb-21 04:31N 40°28' E 017°12'0 0.0
2017-Feb-21 03:31N 40°28' E 017°12'0 0.0
2017-Feb-21 02:31N 40°28' E 017°12'0 0.0
2017-Feb-21 01:31N 40°28' E 017°12'0 0.0
2017-Feb-21 00:31N 40°28' E 017°12'0 0.0
2017-Feb-20 23:31N 40°28' E 017°12'0 0.0
2017-Feb-20 22:31N 40°28' E 017°12'0 0.0
2017-Feb-20 21:31N 40°28' E 017°12'1 0.9
2017-Feb-20 20:32N 40°28' E 017°12'0 0.1
2017-Feb-20 19:32N 40°28' E 017°12'0 0.1
2017-Feb-20 18:32N 40°28' E 017°12'0 0.0
2017-Feb-20 17:32N 40°28' E 017°12'0 0.1
2017-Feb-20 16:32N 40°28' E 017°12'0 0.0
2017-Feb-20 15:32N 40°28' E 017°12'0 0.1
2017-Feb-20 14:32N 40°28' E 017°12'0 0.0
2017-Feb-20 13:32N 40°28' E 017°12'0 0.1
2017-Feb-20 12:32N 40°28' E 017°12'0 0.0
2017-Feb-20 11:32N 40°28' E 017°12'0 0.0
2017-Feb-20 10:32N 40°28' E 017°12'0 0.0
2017-Feb-20 09:32N 40°28' E 017°12'0 0.0
2017-Feb-20 08:32N 40°28' E 017°12'  
2017-Feb-17 00:06N 43°50' E 013°55'813.1
2017-Feb-16 23:30N 43°55' E 013°47'1313.3
2017-Feb-16 22:33N 44°02' E 013°32'1313.3
2017-Feb-16 21:33N 44°09' E 013°17'1312.7
2017-Feb-16 20:33N 44°20' E 013°08'1313.3
2017-Feb-16 19:33N 44°33' E 013°02'1313.3
2017-Feb-16 18:33N 44°46' E 012°57'1313.5
2017-Feb-16 17:34N 44°58' E 012°49'1312.8
2017-Feb-16 16:33N 45°08' E 012°38'1312.5
2017-Feb-16 15:33N 45°18' E 012°26'9 8.9
2017-Feb-16 14:33N 45°22' E 012°15'5 4.9
2017-Feb-16 13:32N 45°27' E 012°16'0 0.0
2017-Feb-16 12:32N 45°27' E 012°16'0 0.0
2017-Feb-16 11:32N 45°27' E 012°16'0 0.0
2017-Feb-16 10:32N 45°27' E 012°16'0 0.0
2017-Feb-16 09:32N 45°27' E 012°16'  
Track history (hours):
 
Tides and Currents Weather Stations Pressure Air Temp Water Temp Dewpoint Dewpoint Depression Visibility Wind Speed Wind Dir Waves Ship Positions

White Point

Last reported at 2017-Feb-26 09:32 UTC. Time now 2017-Feb-26 10:32 UTC.
Position N 45°20' E 012°26'.

Length 183 m; draft 1.1 m.

Type: Ship (hazmat cat D). MMSI: 247087400.

Date/timePositionNaut miles runAvg speedWind from/ knotsBaromVisibWave heightAir tempDewpointWater temp
2017-Feb-26 09:32N 45°20' E 012°26'0 0.0
2017-Feb-26 08:32N 45°20' E 012°26'0 0.0
2017-Feb-26 07:32N 45°20' E 012°26'0 0.0
2017-Feb-26 06:32N 45°20' E 012°26'0 0.0
2017-Feb-26 05:32N 45°20' E 012°26'0 0.0
2017-Feb-26 04:32N 45°20' E 012°26'0 0.0
2017-Feb-26 03:32N 45°20' E 012°26'0 0.0
2017-Feb-26 02:32N 45°20' E 012°26'0 0.0
2017-Feb-26 01:32N 45°20' E 012°26'0 0.0
2017-Feb-26 00:32N 45°20' E 012°26'0 0.0
2017-Feb-25 23:32N 45°20' E 012°26'0 0.0
2017-Feb-25 22:32N 45°20' E 012°26'0 0.0
2017-Feb-25 21:32N 45°20' E 012°26'0 0.0
2017-Feb-25 20:32N 45°20' E 012°26'0 0.0
2017-Feb-25 19:32N 45°20' E 012°26'0 0.0
2017-Feb-25 18:33N 45°20' E 012°26'0 0.0
2017-Feb-25 17:33N 45°20' E 012°26'1 1.1
2017-Feb-25 16:33N 45°19' E 012°27'1212.3
2017-Feb-25 15:34N 45°11' E 012°40'1312.6
2017-Feb-25 14:33N 45°01' E 012°50'1212.0
2017-Feb-25 13:33N 44°50' E 012°58'1211.7
2017-Feb-25 12:34N 44°39' E 013°03'1211.9
2017-Feb-25 11:33N 44°28' E 013°09'1111.3
2017-Feb-25 10:33N 44°18' E 013°18'1311.3
2017-Feb-25 09:27N 44°09' E 013°30'395 9.7
2017-Feb-23 16:32N 37°51' E 016°02'1312.8
2017-Feb-23 15:33N 37°51' E 015°46'1313.1
2017-Feb-23 14:33N 38°01' E 015°35'1414.0
2017-Feb-23 13:33N 38°15' E 015°38'8 7.6
2017-Feb-23 12:33N 38°19' E 015°30'1212.3
2017-Feb-23 11:33N 38°13' E 015°17'0 0.4
2017-Feb-23 10:31N 38°13' E 015°16'0 0.0
2017-Feb-23 08:30N 38°13' E 015°16'0 0.0
2017-Feb-23 06:16N 38°13' E 015°16'0 0.0
2017-Feb-23 05:33N 38°13' E 015°16'0 0.0
2017-Feb-23 04:33N 38°13' E 015°16'0 0.0
2017-Feb-23 03:34N 38°13' E 015°16'0 0.0
2017-Feb-23 02:34N 38°13' E 015°16'0 0.0
2017-Feb-23 01:34N 38°13' E 015°16'0 0.0
2017-Feb-23 00:34N 38°13' E 015°16'0 0.0
2017-Feb-22 23:33N 38°13' E 015°16'0 0.0
2017-Feb-22 22:34N 38°13' E 015°16'0 0.0
2017-Feb-22 21:33N 38°13' E 015°16'0 0.0
2017-Feb-22 20:34N 38°13' E 015°16'0 0.0
2017-Feb-22 19:33N 38°13' E 015°16'0 0.0
2017-Feb-22 18:33N 38°13' E 015°16'0 0.0
2017-Feb-22 17:33N 38°13' E 015°16'0 0.0
2017-Feb-22 16:33N 38°13' E 015°16'0 0.0
2017-Feb-22 15:33N 38°13' E 015°16'0 0.0
2017-Feb-22 14:33N 38°13' E 015°16'0 0.3
2017-Feb-22 13:33N 38°13' E 015°16'1 0.9
2017-Feb-22 12:28N 38°13' E 015°18'0 0.1
2017-Feb-22 11:33N 38°13' E 015°18'1010.0
2017-Feb-22 10:33N 38°19' E 015°28'1110.7
2017-Feb-22 09:33N 38°19' E 015°42'10 9.9
2017-Feb-22 08:33N 38°09' E 015°37'1111.4
2017-Feb-22 07:33N 37°58' E 015°37'1511.8
2017-Feb-22 06:19N 37°51' E 015°53'12711.7
2017-Feb-21 19:25N 39°41' E 017°16'1113.1
2017-Feb-21 18:33N 39°52' E 017°14'1313.4
2017-Feb-21 17:32N 40°05' E 017°11'1313.0
2017-Feb-21 16:32N 40°18' E 017°09'1010.2
2017-Feb-21 15:33N 40°28' E 017°12'0 0.4
2017-Feb-21 14:31N 40°28' E 017°12'0 0.0
2017-Feb-21 13:31N 40°28' E 017°12'0 0.0
2017-Feb-21 12:31N 40°28' E 017°12'0 0.0
2017-Feb-21 11:31N 40°28' E 017°12'0 0.0
2017-Feb-21 10:31N 40°28' E 017°12'0 0.0
2017-Feb-21 09:31N 40°28' E 017°12'0 0.0
2017-Feb-21 08:31N 40°28' E 017°12'0 0.0
2017-Feb-21 07:31N 40°28' E 017°12'0 0.0
2017-Feb-21 06:31N 40°28' E 017°12'0 0.0
2017-Feb-21 05:31N 40°28' E 017°12'0 0.0
2017-Feb-21 04:31N 40°28' E 017°12'0 0.0
2017-Feb-21 03:31N 40°28' E 017°12'0 0.0
2017-Feb-21 02:31N 40°28' E 017°12'0 0.0
2017-Feb-21 01:31N 40°28' E 017°12'0 0.0
2017-Feb-21 00:31N 40°28' E 017°12'0 0.0
2017-Feb-20 23:31N 40°28' E 017°12'0 0.0
2017-Feb-20 22:31N 40°28' E 017°12'0 0.0
2017-Feb-20 21:31N 40°28' E 017°12'1 0.9
2017-Feb-20 20:32N 40°28' E 017°12'0 0.1
2017-Feb-20 19:32N 40°28' E 017°12'0 0.1
2017-Feb-20 18:32N 40°28' E 017°12'0 0.0
2017-Feb-20 17:32N 40°28' E 017°12'0 0.1
2017-Feb-20 16:32N 40°28' E 017°12'0 0.0
2017-Feb-20 15:32N 40°28' E 017°12'0 0.1
2017-Feb-20 14:32N 40°28' E 017°12'0 0.0
2017-Feb-20 13:32N 40°28' E 017°12'0 0.1
2017-Feb-20 12:32N 40°28' E 017°12'0 0.0
2017-Feb-20 11:32N 40°28' E 017°12'0 0.0
2017-Feb-20 10:32N 40°28' E 017°12'0 0.0
2017-Feb-20 09:32N 40°28' E 017°12'0 0.0
2017-Feb-20 08:32N 40°28' E 017°12'  
2017-Feb-17 00:06N 43°50' E 013°55'813.1
2017-Feb-16 23:30N 43°55' E 013°47'1313.3
2017-Feb-16 22:33N 44°02' E 013°32'1313.3
2017-Feb-16 21:33N 44°09' E 013°17'1312.7
2017-Feb-16 20:33N 44°20' E 013°08'1313.3
2017-Feb-16 19:33N 44°33' E 013°02'1313.3
2017-Feb-16 18:33N 44°46' E 012°57'1313.5
2017-Feb-16 17:34N 44°58' E 012°49'1312.8
2017-Feb-16 16:33N 45°08' E 012°38'1312.5
2017-Feb-16 15:33N 45°18' E 012°26'9 8.9
2017-Feb-16 14:33N 45°22' E 012°15'5 4.9
2017-Feb-16 13:32N 45°27' E 012°16'0 0.0
2017-Feb-16 12:32N 45°27' E 012°16'0 0.0
2017-Feb-16 11:32N 45°27' E 012°16'0 0.0
2017-Feb-16 10:32N 45°27' E 012°16'0 0.0
2017-Feb-16 09:32N 45°27' E 012°16'  

Dump ship's entire track history